Pinecrest, Florida
Current Conditions -  °F | °C
As of 6:53 PM on Sunday 21 Dec 2014 (Local Time) from KTMB Reporting Station
Few Clouds Few Clouds  
Wind Chill: 72°   Ceiling: Unl
Heat Index: 72°   Visibility: 10mi
Dew Point: 64°   Wind: 3mph
Humidity: 76%   Direction: 120°ESE
Pressure: 30.05"   Gusts: NA
Location:  25.6624°N, 80.3251°W
Report Text: KTMB 212353Z 12003KT 10SM FEW120 22/18 A3005 RMK AO2 SLP174 T02220178 10267 20217 53007 $
Loading
Personal Weather Stations






























Interactive Weather Map New forecast layout! Learn more

10-Day Weather Forecast

Advertisements
Track Severe Weather on mobile